Time;durP1;ratioP1;P1;durP2;ratioP2;P2;SDS_P1;SDS_P2;PMS_P1;PMS_P2;Temp;Humidity;BMP_temperature;BMP_pressure;BME280_temperature;BME280_humidity;BME280_pressure;Samples;Min_cycle;Max_cycle;Signal;HPM_P1;HPM_P2
2021/05/02 00:00:17;;;;;;;8.38;5.45;;;5.60;99.90;;;;;;5027596;28;20093;-77
2021/05/02 00:02:44;;;;;;;10.13;7.00;;;5.60;99.90;;;;;;5021042;28;20448;-78
2021/05/02 00:05:10;;;;;;;11.50;6.78;;;5.60;99.90;;;;;;5048424;28;20052;-77
2021/05/02 00:07:36;;;;;;;9.13;7.13;;;5.60;99.90;;;;;;5030195;28;20041;-78
2021/05/02 00:10:04;;;;;;;10.02;6.60;;;5.50;99.90;;;;;;5048437;28;20133;-78
2021/05/02 00:12:31;;;;;;;11.50;7.13;;;5.50;99.90;;;;;;5048184;28;20033;-78
2021/05/02 00:14:56;;;;;;;9.90;6.30;;;5.60;99.90;;;;;;5030541;28;20042;-77
2021/05/02 00:17:23;;;;;;;9.13;6.55;;;5.50;99.90;;;;;;5014056;28;20037;-78
2021/05/02 00:19:49;;;;;;;12.00;7.43;;;5.50;99.90;;;;;;5030351;28;20108;-78
2021/05/02 00:22:19;;;;;;;12.98;8.50;;;5.50;99.90;;;;;;5030374;28;20034;-78
2021/05/02 00:24:46;;;;;;;;;;;5.50;99.90;;;;;;5030715;28;20034;-78
2021/05/02 00:27:12;;;;;;;14.73;7.85;;;5.60;99.90;;;;;;5012803;28;19909;-78
2021/05/02 00:29:41;;;;;;;10.65;7.05;;;5.60;99.90;;;;;;5048077;28;20026;-76
2021/05/02 00:32:07;;;;;;;11.05;7.28;;;5.60;99.90;;;;;;5047754;28;20029;-75
2021/05/02 00:34:38;;;;;;;13.57;9.10;;;5.60;99.90;;;;;;5046584;28;20029;-76
2021/05/02 00:37:04;;;;;;;;;;;5.60;99.90;;;;;;5030510;28;20079;-76
2021/05/02 00:39:30;;;;;;;15.35;8.85;;;5.70;99.90;;;;;;5013705;28;19909;-76
2021/05/02 00:42:02;;;;;;;13.38;8.85;;;5.70;99.90;;;;;;5047733;28;20040;-76
2021/05/02 00:44:45;;;;;;;15.63;9.45;;;5.70;99.90;;;;;;5051809;28;20025;-78
2021/05/02 00:47:17;;;;;;;15.13;9.77;;;5.60;99.90;;;;;;5047679;28;20104;-76
2021/05/02 00:50:05;;;;;;;14.93;10.65;;;5.60;99.90;;;;;;5047754;28;20127;-76
2021/05/02 00:52:46;;;;;;;14.80;10.43;;;5.50;99.90;;;;;;5013346;28;20029;-77
2021/05/02 00:55:16;;;;;;;15.85;8.18;;;5.40;99.90;;;;;;5013297;28;20044;-78
2021/05/02 00:57:58;;;;;;;16.15;10.15;;;5.30;99.90;;;;;;5013366;28;20093;-77
2021/05/02 01:00:26;;;;;;;14.00;10.27;;;5.30;99.90;;;;;;5047583;28;20029;-77
2021/05/02 01:03:00;;;;;;;13.23;9.10;;;5.30;99.90;;;;;;5047045;28;20495;-77
2021/05/02 01:05:28;;;;;;;13.00;7.95;;;5.30;99.90;;;;;;5046998;28;20033;-77
2021/05/02 01:07:56;;;;;;;12.80;8.52;;;5.30;99.90;;;;;;5024167;28;20053;-76
2021/05/02 01:10:23;;;;;;;16.00;9.20;;;5.30;99.90;;;;;;5029679;28;20033;-75
2021/05/02 01:12:54;;;;;;;15.20;8.70;;;5.40;99.90;;;;;;5047313;28;20063;-76
2021/05/02 01:15:33;;;;;;;14.65;9.07;;;5.40;99.90;;;;;;5047166;28;20076;-75
2021/05/02 01:18:01;;;;;;;13.60;8.65;;;5.50;99.90;;;;;;5045901;28;20045;-75
2021/05/02 01:20:29;;;;;;;13.43;9.63;;;5.50;99.90;;;;;;5047079;28;20044;-75
2021/05/02 01:23:03;;;;;;;13.02;8.93;;;5.60;99.90;;;;;;5047066;28;20089;-76
2021/05/02 01:25:30;;;;;;;13.07;6.82;;;5.60;99.90;;;;;;5047087;28;20151;-75
2021/05/02 01:27:58;;;;;;;11.60;6.85;;;5.60;99.90;;;;;;5046823;28;20037;-75
2021/05/02 01:30:25;;;;;;;11.40;6.60;;;5.60;99.90;;;;;;5012879;28;20030;-76
2021/05/02 01:32:51;;;;;;;11.10;6.20;;;5.70;99.90;;;;;;5045673;28;20116;-76
2021/05/02 01:35:17;;;;;;;15.07;8.02;;;5.70;99.90;;;;;;5028968;28;20025;-76
2021/05/02 01:37:44;;;;;;;11.15;7.63;;;5.70;99.90;;;;;;5012759;28;20030;-76
2021/05/02 01:40:10;;;;;;;8.80;6.10;;;5.80;99.90;;;;;;5012565;28;20033;-76
2021/05/02 01:42:36;;;;;;;14.70;6.88;;;5.70;99.90;;;;;;5062048;28;20040;-76
2021/05/02 01:45:04;;;;;;;11.68;6.82;;;5.80;99.90;;;;;;5046643;28;20057;-76
2021/05/02 01:47:31;;;;;;;11.77;7.90;;;5.80;99.90;;;;;;5028685;28;20037;-76
2021/05/02 01:50:03;;;;;;;10.45;7.20;;;5.80;99.90;;;;;;5012550;28;20033;-76
2021/05/02 01:52:32;;;;;;;10.55;7.15;;;5.80;99.90;;;;;;5046371;28;20032;-75
2021/05/02 01:55:01;;;;;;;9.80;5.65;;;5.80;99.90;;;;;;5046521;28;20068;-75
2021/05/02 01:57:29;;;;;;;10.73;6.47;;;5.80;99.90;;;;;;5028768;28;20037;-76
2021/05/02 01:59:59;;;;;;;8.52;5.18;;;5.80;99.90;;;;;;5046487;28;20032;-75
2021/05/02 02:02:26;;;;;;;9.40;4.87;;;5.80;99.90;;;;;;5028431;28;20124;-76
2021/05/02 02:04:56;;;;;;;6.80;4.00;;;5.80;99.90;;;;;;5012052;28;20313;-78
2021/05/02 02:07:22;;;;;;;9.05;4.38;;;5.80;99.90;;;;;;5044637;28;20040;-78
2021/05/02 02:09:48;;;;;;;6.80;3.00;;;5.80;99.90;;;;;;5012178;28;20037;-78
2021/05/02 02:12:13;;;;;;;6.38;2.67;;;5.80;99.90;;;;;;5045006;28;20026;-78
2021/05/02 02:14:40;;;;;;;4.00;2.08;;;5.80;99.90;;;;;;5046217;28;20034;-77
2021/05/02 02:17:08;;;;;;;6.18;1.65;;;5.80;99.90;;;;;;5046103;28;20030;-78
2021/05/02 02:19:37;;;;;;;4.20;1.17;;;5.80;99.90;;;;;;5046129;28;20053;-78
2021/05/02 02:22:05;;;;;;;2.47;1.00;;;5.80;99.90;;;;;;5045971;28;20448;-78
2021/05/02 02:24:50;;;;;;;3.40;1.08;;;5.80;99.90;;;;;;5045964;28;20037;-78
2021/05/02 02:27:19;;;;;;;3.05;0.85;;;5.80;99.90;;;;;;5028124;28;20029;-78
2021/05/02 02:29:47;;;;;;;4.88;1.83;;;5.80;99.90;;;;;;5045871;28;20037;-78
2021/05/02 02:32:15;;;;;;;3.95;2.00;;;5.80;99.90;;;;;;5045897;28;20032;-78
2021/05/02 02:34:47;;;;;;;4.78;2.20;;;5.90;99.90;;;;;;5045911;28;20037;-77
2021/05/02 02:37:14;;;;;;;6.45;3.22;;;5.90;99.90;;;;;;5045702;28;20108;-77
2021/05/02 02:40:01;;;;;;;7.55;3.78;;;5.90;99.90;;;;;;5011771;28;20041;-78
2021/05/02 02:42:28;;;;;;;4.38;2.95;;;5.90;99.90;;;;;;5045648;28;20030;-78
2021/05/02 02:44:56;;;;;;;4.88;2.30;;;5.90;99.90;;;;;;5029839;28;20037;-77
2021/05/02 02:47:25;;;;;;;5.63;2.05;;;5.90;99.90;;;;;;5028048;28;20040;-78
2021/05/02 02:49:56;;;;;;;6.07;1.58;;;5.80;99.90;;;;;;5045349;28;20037;-78
2021/05/02 02:52:25;;;;;;;4.30;1.00;;;5.80;99.90;;;;;;5045541;28;20029;-77
2021/05/02 02:55:04;;;;;;;3.83;0.70;;;5.80;99.90;;;;;;5045885;28;20061;-78
2021/05/02 02:57:36;;;;;;;6.47;1.10;;;5.80;99.90;;;;;;5045647;28;20097;-77
2021/05/02 03:00:03;;;;;;;2.38;0.90;;;5.80;99.90;;;;;;5045654;28;20041;-77
2021/05/02 03:02:31;;;;;;;3.78;1.30;;;5.80;99.90;;;;;;5045315;28;20053;-77
2021/05/02 03:04:58;;;;;;;3.38;0.85;;;5.70;99.90;;;;;;5011266;28;20097;-78
2021/05/02 03:07:24;;;;;;;2.88;0.80;;;5.70;99.90;;;;;;5027465;28;20045;-78
2021/05/02 03:09:51;;;;;;;7.15;1.70;;;5.60;99.90;;;;;;5045294;28;20371;-78
2021/05/02 03:12:19;;;;;;;2.55;0.75;;;5.50;99.90;;;;;;5045387;28;20033;-78
2021/05/02 03:14:47;;;;;;;2.72;0.80;;;5.50;99.90;;;;;;5045205;28;20029;-77
2021/05/02 03:17:14;;;;;;;4.70;1.10;;;5.50;99.90;;;;;;5045332;28;20029;-78
2021/05/02 03:19:47;;;;;;;3.67;1.15;;;5.50;99.90;;;;;;5045251;28;20075;-77
2021/05/02 03:22:37;;;;;;;4.18;1.02;;;5.40;99.90;;;;;;5043903;28;20025;-77
2021/05/02 03:25:06;;;;;;;3.67;1.13;;;5.40;99.90;;;;;;5027373;28;20064;-77
2021/05/02 03:27:56;;;;;;;4.35;1.05;;;5.30;99.90;;;;;;5027466;28;20045;-78
2021/05/02 03:30:22;;;;;;;4.55;1.70;;;5.30;99.90;;;;;;5011134;28;20122;-78
2021/05/02 03:32:51;;;;;;;8.68;2.13;;;5.30;99.90;;;;;;5027522;28;20034;-78
2021/05/02 03:35:19;;;;;;;3.75;1.77;;;5.20;99.90;;;;;;5036368;28;20084;-78
2021/05/02 03:37:54;;;;;;;3.28;1.73;;;5.10;99.90;;;;;;5007482;28;20034;-78
2021/05/02 03:40:22;;;;;;;5.65;1.80;;;5.00;99.90;;;;;;5025307;28;20026;-78
2021/05/02 03:42:48;;;;;;;5.43;1.80;;;4.90;99.90;;;;;;5025855;28;20057;-77
2021/05/02 03:45:14;;;;;;;5.20;2.40;;;4.90;99.90;;;;;;5044871;28;20034;-78
2021/05/02 03:47:40;;;;;;;7.63;2.25;;;4.80;99.90;;;;;;5044896;28;20052;-78
2021/05/02 03:50:06;;;;;;;7.35;2.20;;;4.70;99.90;;;;;;5027330;28;20034;-78
2021/05/02 03:52:32;;;;;;;4.72;2.17;;;4.70;99.90;;;;;;5010747;28;20440;-78
2021/05/02 03:54:57;;;;;;;6.75;2.35;;;4.60;99.90;;;;;;5044663;28;20039;-77
2021/05/02 03:57:23;;;;;;;6.15;2.92;;;4.70;99.90;;;;;;5045029;28;20045;-78
2021/05/02 03:59:48;;;;;;;5.05;2.25;;;4.70;99.90;;;;;;5027436;28;20029;-78
2021/05/02 04:02:15;;;;;;;9.57;2.80;;;4.70;99.90;;;;;;5047338;28;20115;-78
2021/05/02 04:04:42;;;;;;;5.00;2.50;;;4.60;99.90;;;;;;5030508;28;20056;-78
2021/05/02 04:07:12;;;;;;;7.28;1.95;;;4.60;99.90;;;;;;5048312;28;20032;-77
2021/05/02 04:09:38;;;;;;;;;;;4.60;99.90;;;;;;5048587;28;20030;-78
2021/05/02 04:12:05;;;;;;;6.82;2.85;;;4.60;99.90;;;;;;5048305;28;19909;-78
2021/05/02 04:14:31;;;;;;;8.00;4.13;;;4.50;99.90;;;;;;5048242;28;20030;-77
2021/05/02 04:16:59;;;;;;;6.70;2.78;;;4.60;99.90;;;;;;5048256;28;20053;-78
2021/05/02 04:19:28;;;;;;;8.20;3.00;;;4.50;99.90;;;;;;5047750;28;20029;-77
2021/05/02 04:21:54;;;;;;;9.27;2.85;;;4.50;99.90;;;;;;5047572;28;20030;-78
2021/05/02 04:24:21;;;;;;;7.65;3.13;;;4.60;99.90;;;;;;5029191;28;20030;-78
2021/05/02 04:26:54;;;;;;;4.93;2.78;;;4.70;99.90;;;;;;5029619;28;20067;-78
2021/05/02 04:29:24;;;;;;;6.10;2.38;;;4.80;99.90;;;;;;5047260;28;20037;-78
2021/05/02 04:31:51;;;;;;;9.48;2.95;;;4.70;99.90;;;;;;5029584;28;20029;-77
2021/05/02 04:34:18;;;;;;;7.70;3.10;;;4.80;99.90;;;;;;5047028;28;20068;-78
2021/05/02 04:36:44;;;;;;;7.88;2.85;;;4.80;99.90;;;;;;5029352;28;20048;-77
2021/05/02 04:39:10;;;;;;;6.07;3.08;;;4.80;99.90;;;;;;5029137;28;20025;-77
2021/05/02 04:41:36;;;;;;;6.40;3.05;;;4.90;99.90;;;;;;5047196;28;20039;-77
2021/05/02 04:44:02;;;;;;;5.30;3.30;;;4.90;99.90;;;;;;5046964;28;20033;-78
2021/05/02 04:46:28;;;;;;;9.40;2.42;;;5.00;99.90;;;;;;5045679;28;20040;-77
2021/05/02 04:48:54;;;;;;;8.13;2.30;;;4.90;99.90;;;;;;5047105;28;20037;-77
2021/05/02 04:51:20;;;;;;;5.32;2.05;;;4.90;99.90;;;;;;5029003;28;20033;-77
2021/05/02 04:53:46;;;;;;;7.00;1.75;;;4.90;99.90;;;;;;5042262;28;20078;-77
2021/05/02 04:56:12;;;;;;;6.90;2.40;;;5.00;99.90;;;;;;5046615;28;20116;-77
2021/05/02 04:58:38;;;;;;;6.30;1.90;;;5.10;99.90;;;;;;5046765;28;20093;-77
2021/05/02 05:01:04;;;;;;;6.15;2.50;;;5.10;99.90;;;;;;5029223;28;20033;-78
2021/05/02 05:03:31;;;;;;;3.63;2.22;;;5.20;99.90;;;;;;5047274;28;20128;-78
2021/05/02 05:05:57;;;;;;;5.35;1.70;;;5.20;99.90;;;;;;5046806;28;20030;-78
2021/05/02 05:08:23;;;;;;;5.65;1.58;;;5.30;99.90;;;;;;5029100;28;20041;-78
2021/05/02 05:10:48;;;;;;;6.57;1.60;;;5.30;99.90;;;;;;5045269;28;20075;-78
2021/05/02 05:13:14;;;;;;;4.53;1.70;;;5.40;99.90;;;;;;5046181;28;20040;-79
2021/05/02 05:15:39;;;;;;;6.82;1.48;;;5.30;99.90;;;;;;5046495;28;20032;-79
2021/05/02 05:18:05;;;;;;;5.72;2.22;;;5.30;99.90;;;;;;5045204;28;20037;-78
2021/05/02 05:20:31;;;;;;;9.00;2.00;;;5.30;99.90;;;;;;5028727;28;20037;-78
2021/05/02 05:22:56;;;;;;;5.05;1.60;;;5.40;99.90;;;;;;5046285;28;20021;-79
2021/05/02 05:25:22;;;;;;;6.20;1.85;;;5.40;99.90;;;;;;5046355;28;20036;-79
2021/05/02 05:27:48;;;;;;;4.13;1.52;;;5.40;99.90;;;;;;5012101;28;20048;-78
2021/05/02 05:30:14;;;;;;;7.18;1.73;;;5.30;99.90;;;;;;5012010;28;20041;-78
2021/05/02 05:32:39;;;;;;;6.15;2.65;;;5.30;99.90;;;;;;5028653;28;20048;-79
2021/05/02 05:35:06;;;;;;;6.00;1.85;;;5.30;99.90;;;;;;5044803;28;20033;-78
2021/05/02 05:37:32;;;;;;;4.38;1.45;;;5.30;99.90;;;;;;5027949;28;20033;-78
2021/05/02 05:39:58;;;;;;;7.60;2.00;;;5.40;99.90;;;;;;5045022;28;20053;-76
2021/05/02 05:42:23;;;;;;;4.40;1.60;;;5.50;99.90;;;;;;5044597;28;20033;-76
2021/05/02 05:44:49;;;;;;;3.42;2.10;;;5.60;99.90;;;;;;5028237;28;20029;-76
2021/05/02 05:47:15;;;;;;;6.10;1.88;;;5.50;99.90;;;;;;5045705;28;20021;-76
2021/05/02 05:49:42;;;;;;;11.93;2.58;;;5.50;99.90;;;;;;5028196;28;20029;-76
2021/05/02 05:52:14;;;;;;;8.40;1.88;;;5.40;99.90;;;;;;5027765;28;20465;-76
2021/05/02 05:54:40;;;;;;;3.58;1.65;;;5.50;99.90;;;;;;5028054;28;20057;-76
2021/05/02 05:57:06;;;;;;;4.10;1.90;;;5.60;99.90;;;;;;5027749;28;20541;-76
2021/05/02 05:59:32;;;;;;;5.35;1.90;;;5.70;99.90;;;;;;5027633;28;20044;-76
2021/05/02 06:01:57;;;;;;;4.43;1.67;;;5.90;99.90;;;;;;5045444;28;20049;-76
2021/05/02 06:04:23;;;;;;;5.03;1.75;;;6.10;99.90;;;;;;5045682;28;20033;-76
2021/05/02 06:06:49;;;;;;;6.28;2.28;;;6.20;99.90;;;;;;5027696;28;20112;-76
2021/05/02 06:09:14;;;;;;;4.63;2.65;;;6.40;99.90;;;;;;5045539;28;20037;-76
2021/05/02 06:11:40;;;;;;;6.88;1.85;;;6.60;99.90;;;;;;5045394;28;20374;-75
2021/05/02 06:14:07;;;;;;;6.72;2.00;;;6.70;99.90;;;;;;5027544;28;20045;-76
2021/05/02 06:16:33;;;;;;;5.35;1.13;;;6.80;99.90;;;;;;5042862;28;20033;-76
2021/05/02 06:18:59;;;;;;;7.10;2.13;;;6.90;99.90;;;;;;5035962;28;20117;-76
2021/05/02 06:21:26;;;;;;;5.28;2.15;;;7.10;99.90;;;;;;5026242;28;20036;-76
2021/05/02 06:23:52;;;;;;;6.53;1.95;;;7.20;99.90;;;;;;5007117;28;20101;-76
2021/05/02 06:26:19;;;;;;;3.83;1.70;;;7.20;99.90;;;;;;5025556;28;20030;-76
2021/05/02 06:28:46;;;;;;;5.40;1.73;;;7.40;99.90;;;;;;5007637;28;20038;-77
2021/05/02 06:31:12;;;;;;;8.38;1.95;;;7.40;99.90;;;;;;5025550;28;20030;-77
2021/05/02 06:33:41;;;;;;;4.50;1.38;;;7.40;99.90;;;;;;5009857;28;20034;-76
2021/05/02 06:36:07;;;;;;;7.68;1.40;;;7.50;99.90;;;;;;5027208;28;20040;-76
2021/05/02 06:38:33;;;;;;;9.10;1.40;;;7.40;99.90;;;;;;5010995;28;20404;-79
2021/05/02 06:40:59;;;;;;;6.43;1.33;;;7.30;99.90;;;;;;5027022;28;20060;-78
2021/05/02 06:43:25;;;;;;;5.00;0.80;;;7.40;99.90;;;;;;5024739;28;20026;-79
2021/05/02 06:45:51;;;;;;;7.32;1.00;;;7.40;99.90;;;;;;5038286;28;20060;-79
2021/05/02 06:48:17;;;;;;;3.58;0.77;;;7.70;99.90;;;;;;5028665;28;20037;-79
2021/05/02 06:50:43;;;;;;;4.00;0.93;;;7.70;99.90;;;;;;5027644;28;20033;-79
2021/05/02 06:53:09;;;;;;;4.85;1.23;;;7.70;99.90;;;;;;5030087;28;20033;-77
2021/05/02 06:55:34;;;;;;;7.53;1.05;;;7.60;99.90;;;;;;5016169;28;20025;-77
2021/05/02 06:58:00;;;;;;;2.88;0.80;;;7.80;99.90;;;;;;5014483;28;20034;-77
2021/05/02 07:00:27;;;;;;;5.50;0.70;;;7.90;99.90;;;;;;5008772;28;20045;-77
2021/05/02 07:02:52;;;;;;;4.35;0.70;;;7.60;99.90;;;;;;5018627;28;20041;-78
2021/05/02 07:05:18;;;;;;;2.28;0.50;;;7.70;99.90;;;;;;5023286;28;20036;-77
2021/05/02 07:07:44;;;;;;;2.95;0.60;;;8.00;99.90;;;;;;5010809;28;20092;-76
2021/05/02 07:10:10;;;;;;;5.00;0.70;;;8.10;99.90;;;;;;5015204;28;20029;-77
2021/05/02 07:12:56;;;;;;;4.28;0.60;;;8.10;99.90;;;;;;5015654;28;20084;-77
2021/05/02 07:15:22;;;;;;;3.25;0.75;;;8.30;99.90;;;;;;4947893;29;20070;-77
2021/05/02 07:17:48;;;;;;;2.30;0.55;;;8.20;99.90;;;;;;4931958;29;20099;-79
2021/05/02 07:20:16;;;;;;;2.65;0.50;;;8.30;99.90;;;;;;4955961;28;20936;-79
2021/05/02 07:22:44;;;;;;;4.50;0.82;;;8.30;99.90;;;;;;4963164;29;20575;-79
2021/05/02 07:25:10;;;;;;;5.70;0.65;;;8.60;99.90;;;;;;4947988;29;20173;-78
2021/05/02 07:27:36;;;;;;;4.72;0.60;;;8.50;99.90;;;;;;4963901;29;20055;-79
2021/05/02 07:30:02;;;;;;;3.58;0.50;;;8.50;99.90;;;;;;4947900;29;20050;-79
2021/05/02 07:32:27;;;;;;;7.00;0.70;;;8.60;99.90;;;;;;4963599;29;20063;-79
2021/05/02 07:34:53;;;;;;;5.00;0.50;;;8.40;99.90;;;;;;4964411;28;20027;-79
2021/05/02 07:37:19;;;;;;;2.80;0.50;;;8.90;99.90;;;;;;4951659;29;20036;-77
2021/05/02 07:39:44;;;;;;;3.58;0.55;;;8.90;99.90;;;;;;4935855;29;20074;-79
2021/05/02 07:42:10;;;;;;;4.63;0.52;;;9.30;99.90;;;;;;4967690;29;20039;-79
2021/05/02 07:44:36;;;;;;;4.43;0.50;;;9.10;99.90;;;;;;4967349;29;20081;-79
2021/05/02 07:47:01;;;;;;;3.53;0.60;;;9.30;99.90;;;;;;4951606;29;20073;-79
2021/05/02 07:49:27;;;;;;;3.70;0.95;;;8.80;99.90;;;;;;4967479;29;20051;-79
2021/05/02 07:51:52;;;;;;;4.40;0.85;;;8.40;99.90;;;;;;4967560;28;20033;-79
2021/05/02 07:54:18;;;;;;;3.25;0.50;;;8.60;99.90;;;;;;5028310;28;20411;-77
2021/05/02 07:56:43;;;;;;;3.63;0.40;;;9.40;99.90;;;;;;5010557;28;20022;-77
2021/05/02 07:59:09;;;;;;;4.50;0.50;;;9.10;99.90;;;;;;5010384;28;20057;-78
2021/05/02 08:01:35;;;;;;;2.25;0.30;;;8.70;99.90;;;;;;5010529;28;20046;-79
2021/05/02 08:04:00;;;;;;;2.30;0.50;;;8.60;99.90;;;;;;5027888;28;20030;-79
2021/05/02 08:06:26;;;;;;;1.20;0.30;;;9.20;99.90;;;;;;5026684;28;20069;-79
2021/05/02 08:08:52;;;;;;;4.45;0.30;;;9.10;99.90;;;;;;5027905;28;20065;-79
2021/05/02 08:11:18;;;;;;;1.25;0.30;;;9.20;99.90;;;;;;5036203;28;20037;-80
2021/05/02 08:13:44;;;;;;;5.10;0.35;;;9.80;99.90;;;;;;5029017;28;20429;-79
2021/05/02 08:16:10;;;;;;;0.70;0.30;;;9.70;99.90;;;;;;5047715;28;20032;-80
2021/05/02 08:18:35;;;;;;;3.13;0.30;;;9.90;99.90;;;;;;5029713;28;20075;-77
2021/05/02 08:21:03;;;;;;;3.55;0.30;;;10.00;99.90;;;;;;5029865;28;20040;-77
2021/05/02 08:23:29;;;;;;;2.53;0.38;;;10.20;99.90;;;;;;5029607;28;20033;-79
2021/05/02 08:25:56;;;;;;;1.63;0.30;;;9.80;99.90;;;;;;5013403;28;20060;-81
2021/05/02 08:28:21;;;;;;;1.15;0.30;;;9.00;99.90;;;;;;5047588;28;20033;-80
2021/05/02 08:30:48;;;;;;;1.73;0.30;;;8.60;99.90;;;;;;5013119;28;20030;-81
2021/05/02 08:33:14;;;;;;;2.38;0.30;;;8.50;99.90;;;;;;5010441;28;20041;-79
2021/05/02 08:35:39;;;;;;;1.52;0.30;;;9.10;99.90;;;;;;5045822;28;20049;-80
2021/05/02 08:38:05;;;;;;;1.17;0.40;;;9.50;99.90;;;;;;5013120;28;20036;-80
2021/05/02 08:40:31;;;;;;;1.48;0.30;;;9.80;99.90;;;;;;5029222;28;20060;-80
2021/05/02 08:43:02;;;;;;;1.00;0.30;;;9.20;99.90;;;;;;5046939;28;20386;-80
2021/05/02 08:45:29;;;;;;;1.27;0.30;;;9.10;99.90;;;;;;5029214;28;20053;-78
2021/05/02 08:47:55;;;;;;;2.95;0.40;;;9.90;99.90;;;;;;5028378;28;20052;-78
2021/05/02 08:50:20;;;;;;;3.25;0.40;;;10.20;99.90;;;;;;5029163;28;20397;-78
2021/05/02 08:52:47;;;;;;;2.65;0.50;;;10.40;99.90;;;;;;5029310;28;20053;-77
2021/05/02 08:55:12;;;;;;;4.70;0.30;;;10.20;99.90;;;;;;5029328;28;20068;-78
2021/05/02 08:57:38;;;;;;;1.52;0.30;;;9.90;99.90;;;;;;5029018;28;20033;-79
2021/05/02 09:00:09;;;;;;;1.75;0.43;;;9.60;99.90;;;;;;5028777;28;20044;-78
2021/05/02 09:02:35;;;;;;;2.38;0.30;;;9.80;99.90;;;;;;5008849;28;20050;-78
2021/05/02 09:05:07;;;;;;;2.72;0.30;;;9.70;99.90;;;;;;5025675;28;20044;-79
2021/05/02 09:07:43;;;;;;;2.38;0.30;;;9.50;99.90;;;;;;5025328;28;20034;-79
2021/05/02 09:10:13;;;;;;;2.58;0.20;;;9.80;99.90;;;;;;4992980;28;20434;-79
2021/05/02 09:12:41;;;;;;;5.78;0.30;;;10.30;99.90;;;;;;5009276;28;20030;-78
2021/05/02 09:15:20;;;;;;;4.65;0.30;;;10.40;99.90;;;;;;5026378;28;20038;-79
2021/05/02 09:18:17;;;;;;;1.10;0.30;;;10.50;99.90;;;;;;5025442;28;20037;-79
2021/05/02 09:20:48;;;;;;;1.85;0.20;;;10.60;99.90;;;;;;4993089;28;20500;-80
2021/05/02 09:23:15;;;;;;;2.45;0.30;;;10.50;99.90;;;;;;4992633;28;20064;-80
2021/05/02 09:25:52;;;;;;;1.90;0.20;;;10.60;99.90;;;;;;5025323;28;20040;-79
2021/05/02 09:28:39;;;;;;;2.63;0.40;;;10.90;99.90;;;;;;4992582;28;20121;-79
2021/05/02 09:31:06;;;;;;;1.80;0.20;;;10.80;99.90;;;;;;5008678;28;20061;-80
2021/05/02 09:33:32;;;;;;;0.88;0.20;;;10.80;99.90;;;;;;5008738;28;20367;-80
2021/05/02 09:35:57;;;;;;;2.08;0.30;;;11.20;99.90;;;;;;5008807;28;20041;-79
2021/05/02 09:38:23;;;;;;;0.63;0.20;;;10.40;99.90;;;;;;5008763;28;20030;-79
2021/05/02 09:40:55;;;;;;;1.05;0.20;;;10.00;99.90;;;;;;5026379;28;20090;-80
2021/05/02 09:43:36;;;;;;;3.25;0.20;;;9.80;99.90;;;;;;5025038;28;20026;-80
2021/05/02 09:46:25;;;;;;;1.27;0.20;;;9.70;99.90;;;;;;4992297;28;20034;-79
2021/05/02 09:49:18;;;;;;;1.50;0.30;;;10.50;99.90;;;;;;5025035;28;20101;-79
2021/05/02 09:51:54;;;;;;;3.28;0.30;;;11.30;99.90;;;;;;5023604;28;20046;-79
2021/05/02 09:54:21;;;;;;;2.78;0.20;;;10.90;99.90;;;;;;5008414;28;20092;-79
2021/05/02 09:56:51;;;;;;;0.80;0.20;;;10.20;99.90;;;;;;5008334;28;20091;-79
2021/05/02 09:59:29;;;;;;;3.03;0.20;;;10.70;99.90;;;;;;5023791;28;20022;-79
2021/05/02 10:02:13;;;;;;;0.80;0.20;;;11.60;99.90;;;;;;4995140;28;20148;-79
2021/05/02 10:04:56;;;;;;;1.67;0.20;;;10.80;99.90;;;;;;5011269;28;20026;-79
2021/05/02 10:07:24;;;;;;;1.25;0.20;;;10.70;99.90;;;;;;5027673;28;20033;-79
2021/05/02 10:09:54;;;;;;;1.42;0.30;;;10.70;99.90;;;;;;5044323;28;20037;-79
2021/05/02 10:12:20;;;;;;;2.72;0.20;;;11.00;99.90;;;;;;5011353;28;20036;-79
2021/05/02 10:14:48;;;;;;;1.23;0.20;;;10.60;99.90;;;;;;5008833;28;20045;-79
2021/05/02 10:17:14;;;;;;;2.17;0.20;;;10.40;99.90;;;;;;5020297;28;20454;-78
2021/05/02 10:19:41;;;;;;;2.10;0.25;;;10.60;99.90;;;;;;5018449;28;20495;-79
2021/05/02 10:22:07;;;;;;;0.88;0.20;;;10.60;99.90;;;;;;5043822;28;20029;-79
2021/05/02 10:24:34;;;;;;;1.60;0.20;;;10.10;99.90;;;;;;5011213;28;20037;-77
2021/05/02 10:27:05;;;;;;;1.42;0.28;;;10.00;99.90;;;;;;5021699;28;20057;-78
2021/05/02 10:29:32;;;;;;;1.35;0.20;;;10.10;99.90;;;;;;5034793;28;20056;-78
2021/05/02 10:32:04;;;;;;;0.98;0.20;;;10.10;99.90;;;;;;5014180;28;20056;-78
2021/05/02 10:34:36;;;;;;;2.25;0.20;;;9.90;99.90;;;;;;5023760;28;20085;-78
2021/05/02 10:37:23;;;;;;;2.15;0.30;;;10.00;99.90;;;;;;5010565;28;20037;-78
2021/05/02 10:39:55;;;;;;;1.90;0.25;;;10.10;99.90;;;;;;5024378;28;20068;-78
2021/05/02 10:42:38;;;;;;;1.00;0.20;;;10.10;99.90;;;;;;5038090;23;20052;-77
2021/05/02 10:45:36;;;;;;;1.30;0.30;;;10.20;99.90;;;;;;5056890;28;20029;-78
2021/05/02 10:48:05;;;;;;;1.73;0.20;;;9.80;99.90;;;;;;5010197;28;20041;-78
2021/05/02 10:50:54;;;;;;;3.70;0.30;;;9.80;99.90;;;;;;5026661;28;20029;-78
2021/05/02 10:53:22;;;;;;;0.88;0.20;;;9.90;99.90;;;;;;5045122;28;20048;-78
2021/05/02 10:56:05;;;;;;;2.63;0.40;;;10.90;99.90;;;;;;5010874;28;20033;-78
2021/05/02 10:58:35;;;;;;;2.22;0.20;;;11.00;99.90;;;;;;5011273;28;20065;-78
2021/05/02 11:01:10;;;;;;;0.85;0.20;;;11.10;99.90;;;;;;5027096;28;20026;-78
2021/05/02 11:03:39;;;;;;;2.05;0.20;;;10.90;99.90;;;;;;5027249;28;20038;-78
2021/05/02 11:06:10;;;;;;;1.35;0.10;;;11.00;99.90;;;;;;5010806;28;20029;-78
2021/05/02 11:08:52;;;;;;;0.50;0.20;;;11.10;99.90;;;;;;5010792;28;20489;-78
2021/05/02 11:11:39;;;;;;;0.60;0.20;;;11.30;99.90;;;;;;5013831;28;20034;-78
2021/05/02 11:14:15;;;;;;;0.70;0.13;;;11.40;99.90;;;;;;5049195;28;20373;-78
2021/05/02 11:17:05;;;;;;;1.42;0.10;;;11.40;99.90;;;;;;5030967;28;20029;-78
2021/05/02 11:19:35;;;;;;;0.40;0.10;;;11.10;99.90;;;;;;5044104;28;20044;-79
2021/05/02 11:22:07;;;;;;;3.55;0.10;;;11.50;99.90;;;;;;5050307;28;20052;-79
2021/05/02 11:24:39;;;;;;;0.22;0.10;;;12.00;99.90;;;;;;5034168;28;20435;-79
2021/05/02 11:32:28;;;;;;;0.28;0.10;;;10.80;99.90;;;;;;5068516;28;20033;-79
2021/05/02 11:35:06;;;;;;;0.93;0.20;;;10.90;99.90;;;;;;5068354;28;20033;-79
2021/05/02 11:37:39;;;;;;;0.95;0.10;;;10.50;99.90;;;;;;5050167;28;20473;-79
2021/05/02 11:40:24;;;;;;;1.15;0.10;;;10.50;99.90;;;;;;5051007;28;20118;-78
2021/05/02 11:43:01;;;;;;;0.50;0.13;;;10.90;99.90;;;;;;5050098;28;20451;-79
2021/05/02 11:45:29;;;;;;;0.75;0.10;;;11.80;99.90;;;;;;5065482;28;20036;-78
2021/05/02 11:47:55;;;;;;;1.65;0.20;;;10.90;99.90;;;;;;5050410;28;20041;-78
2021/05/02 11:50:21;;;;;;;2.60;0.20;;;10.80;99.90;;;;;;5054984;28;20032;-79
2021/05/02 11:52:55;;;;;;;1.35;0.20;;;10.80;99.90;;;;;;5035228;28;20041;-79
2021/05/02 11:55:26;;;;;;;0.45;0.10;;;10.70;99.90;;;;;;5035240;28;20017;-78
2021/05/02 11:57:53;;;;;;;1.75;0.10;;;10.80;99.90;;;;;;5033674;28;20033;-78
2021/05/02 12:00:41;;;;;;;2.30;0.15;;;10.90;99.90;;;;;;5066255;28;20025;-79
2021/05/02 12:03:11;;;;;;;0.38;0.17;;;10.70;99.90;;;;;;5058808;28;20313;-78
2021/05/02 12:05:57;;;;;;;0.90;0.20;;;10.50;99.90;;;;;;5065938;28;20035;-78
2021/05/02 12:08:27;;;;;;;1.10;0.20;;;10.60;99.90;;;;;;4945574;28;20066;-79
2021/05/02 12:11:04;;;;;;;;;;;11.10;99.90;;;;;;4949609;28;20043;-78
2021/05/02 12:13:43;;;;;;;1.92;0.25;;;10.80;99.90;;;;;;4948905;29;19992;-78
2021/05/02 12:16:29;;;;;;;3.08;0.30;;;10.60;99.90;;;;;;4966438;28;20042;-78
2021/05/02 12:19:04;;;;;;;1.13;0.20;;;10.50;99.90;;;;;;4950348;28;20059;-78
2021/05/02 12:21:35;;;;;;;0.98;0.20;;;10.50;99.90;;;;;;4963271;28;20043;-78
2021/05/02 12:24:13;;;;;;;2.78;0.30;;;10.90;99.90;;;;;;4949566;29;20068;-78
2021/05/02 12:26:43;;;;;;;0.90;0.30;;;11.00;99.90;;;;;;4969052;28;20043;-78
2021/05/02 12:29:30;;;;;;;;;;;11.70;99.90;;;;;;4966617;28;20054;-78
2021/05/02 12:32:01;;;;;;;2.25;0.30;;;11.20;99.90;;;;;;4963768;29;20333;-79
2021/05/02 12:34:36;;;;;;;1.77;0.63;;;10.90;99.90;;;;;;4965871;28;20031;-78
2021/05/02 12:37:10;;;;;;;2.78;0.38;;;10.30;99.90;;;;;;4965829;28;20031;-78
2021/05/02 12:39:37;;;;;;;1.55;0.60;;;10.30;99.90;;;;;;4966177;28;20519;-78
2021/05/02 12:42:04;;;;;;;2.85;0.50;;;10.00;99.90;;;;;;4965399;28;20056;-78
2021/05/02 12:44:31;;;;;;;1.17;0.38;;;10.00;99.90;;;;;;4957255;28;20027;-79
2021/05/02 12:47:02;;;;;;;1.27;0.50;;;10.80;99.90;;;;;;5055835;28;20047;-79
2021/05/02 12:49:30;;;;;;;2.35;0.40;;;11.40;99.90;;;;;;5044762;28;20065;-78
2021/05/02 12:52:06;;;;;;;1.52;0.32;;;11.90;99.90;;;;;;5058379;28;20021;-78
2021/05/02 12:54:36;;;;;;;0.70;0.30;;;12.10;99.90;;;;;;5040683;28;20120;-79
2021/05/02 12:57:08;;;;;;;1.20;0.30;;;11.90;99.90;;;;;;5062964;28;20034;-78
2021/05/02 13:02:10;;;;;;;3.33;0.35;;;12.80;99.90;;;;;;5063624;28;20028;-78
2021/05/02 13:04:43;;;;;;;;;;;12.50;99.90;;;;;;5044611;28;20025;-79
2021/05/02 13:07:09;;;;;;;2.58;0.30;;;12.20;99.90;;;;;;5042916;28;19917;-79
2021/05/02 13:09:45;;;;;;;0.60;0.30;;;12.70;99.90;;;;;;5060873;28;20509;-79
2021/05/02 13:12:13;;;;;;;2.05;1.05;;;12.40;99.90;;;;;;5044791;28;20411;-79
2021/05/02 13:14:40;;;;;;;2.38;0.25;;;13.40;99.90;;;;;;5048124;28;20088;-79